createdAt,value
2018-09-01T00:00:59.990Z,6.23
2018-09-01T00:03:28.229Z,5.63
2018-09-01T00:05:56.605Z,6.33
2018-09-01T00:08:24.891Z,5.17
2018-09-01T00:10:53.140Z,5.80
2018-09-01T00:13:21.630Z,7.27
2018-09-01T00:18:24.571Z,7.03
2018-09-01T00:20:52.897Z,7.27
2018-09-01T00:23:21.176Z,6.97
2018-09-01T00:25:49.444Z,6.73
2018-09-01T00:28:17.721Z,6.27
2018-09-01T00:30:46.034Z,6.13
2018-09-01T00:33:14.272Z,5.97
2018-09-01T00:35:42.549Z,5.50
2018-09-01T00:38:16.192Z,6.10
2018-09-01T00:40:44.497Z,5.90
2018-09-01T00:43:12.907Z,5.47
2018-09-01T00:45:41.222Z,6.13
2018-09-01T00:48:09.468Z,6.30
2018-09-01T00:50:37.700Z,6.00
2018-09-01T00:53:06.140Z,6.10
2018-09-01T00:55:34.428Z,5.80
2018-09-01T00:58:03.045Z,5.67
2018-09-01T01:00:31.321Z,5.83
2018-09-01T01:02:59.602Z,6.57
2018-09-01T01:05:27.877Z,6.30
2018-09-01T01:07:56.118Z,6.77
2018-09-01T01:10:24.394Z,6.73
2018-09-01T01:12:52.645Z,6.63
2018-09-01T01:15:21.049Z,5.97
2018-09-01T01:17:49.312Z,5.57
2018-09-01T01:20:17.589Z,6.83
2018-09-01T01:22:45.885Z,5.80
2018-09-01T01:25:14.152Z,6.03
2018-09-01T01:27:42.449Z,6.43
2018-09-01T01:30:10.693Z,7.23
2018-09-01T01:32:38.965Z,6.70
2018-09-01T01:35:07.250Z,6.63
2018-09-01T01:37:36.479Z,7.67
2018-09-01T01:40:05.634Z,7.00
2018-09-01T01:42:35.049Z,7.20
2018-09-01T01:45:03.428Z,7.27
2018-09-01T01:47:31.685Z,7.40
2018-09-01T01:50:00.188Z,7.37
2018-09-01T01:52:28.573Z,7.47
2018-09-01T01:54:56.925Z,6.50
2018-09-01T01:57:25.209Z,7.23
2018-09-01T01:59:53.479Z,7.53
2018-09-01T02:02:21.772Z,6.50
2018-09-01T02:04:52.364Z,6.97
2018-09-01T02:07:20.596Z,7.40
2018-09-01T02:09:48.868Z,8.20
2018-09-01T02:12:17.145Z,6.77
2018-09-01T02:14:45.460Z,8.53
2018-09-01T02:17:13.752Z,8.20
2018-09-01T02:19:42.009Z,8.10
2018-09-01T02:22:10.237Z,7.77
2018-09-01T02:24:38.528Z,8.00
2018-09-01T02:27:06.789Z,8.20
2018-09-01T02:29:35.045Z,8.37
2018-09-01T02:32:03.461Z,7.93
2018-09-01T02:34:31.737Z,8.17
2018-09-01T02:37:00.006Z,7.67
2018-09-01T02:39:28.782Z,7.47
2018-09-01T02:41:57.077Z,8.33
2018-09-01T02:44:25.343Z,8.33
2018-09-01T02:46:53.704Z,6.80
2018-09-01T02:49:21.970Z,7.43
2018-09-01T02:51:50.256Z,7.50
2018-09-01T02:54:18.601Z,7.93
2018-09-01T02:56:46.837Z,7.53
2018-09-01T02:59:15.134Z,7.93
2018-09-01T03:01:43.412Z,7.50
2018-09-01T03:04:11.773Z,8.73
2018-09-01T03:06:49.224Z,7.90
2018-09-01T03:09:17.539Z,7.90
2018-09-01T03:11:45.797Z,7.57
2018-09-01T03:14:14.080Z,7.43
2018-09-01T03:16:42.330Z,7.77
2018-09-01T03:19:10.561Z,8.03
2018-09-01T03:21:38.857Z,8.43
2018-09-01T03:24:07.165Z,8.63
2018-09-01T03:26:35.492Z,9.13
2018-09-01T03:29:03.737Z,7.93
2018-09-01T03:31:32.028Z,8.30
2018-09-01T03:34:00.294Z,7.80
2018-09-01T03:36:28.601Z,8.77
2018-09-01T03:38:56.866Z,8.53
2018-09-01T03:41:25.133Z,8.13
2018-09-01T03:43:53.408Z,9.13
2018-09-01T03:46:21.705Z,9.23
2018-09-01T03:48:50.038Z,8.03
2018-09-01T03:51:18.336Z,8.50
2018-09-01T03:53:46.617Z,8.47
2018-09-01T03:56:14.881Z,8.53
2018-09-01T03:58:43.164Z,8.30
2018-09-01T04:01:11.390Z,9.00
2018-09-01T04:03:39.725Z,10.33
2018-09-01T04:06:07.993Z,10.97
2018-09-01T04:08:36.232Z,11.23
2018-09-01T04:11:04.552Z,10.90
2018-09-01T04:13:32.900Z,11.53
2018-09-01T04:16:01.165Z,12.57
2018-09-01T04:18:29.492Z,11.80
2018-09-01T04:20:57.764Z,11.87
2018-09-01T04:23:26.024Z,12.20
2018-09-01T04:25:54.301Z,12.93
2018-09-01T04:28:22.614Z,12.33
2018-09-01T04:30:50.934Z,11.77
2018-09-01T04:33:19.183Z,13.00
2018-09-01T04:35:47.650Z,13.50
2018-09-01T04:38:15.942Z,13.53
2018-09-01T04:40:44.629Z,14.33
2018-09-01T04:43:12.953Z,17.30
2018-09-01T04:45:41.785Z,16.60
2018-09-01T04:48:10.568Z,18.17
2018-09-01T04:50:38.846Z,18.20
2018-09-01T04:53:07.326Z,16.97
2018-09-01T04:55:35.641Z,18.93
2018-09-01T04:58:03.968Z,17.80
2018-09-01T05:00:32.218Z,19.17
2018-09-01T05:03:00.505Z,20.10
2018-09-01T05:05:28.793Z,19.37
2018-09-01T05:07:57.049Z,19.80
2018-09-01T05:10:25.346Z,18.70
2018-09-01T05:12:53.620Z,19.43
2018-09-01T05:15:21.904Z,18.60
2018-09-01T05:17:50.173Z,18.23
2018-09-01T05:20:18.453Z,17.93
2018-09-01T05:22:46.768Z,18.90
2018-09-01T05:25:15.045Z,16.40
2018-09-01T05:27:43.453Z,17.13
2018-09-01T05:30:11.741Z,17.73
2018-09-01T05:32:40.028Z,17.63
2018-09-01T05:35:08.301Z,18.23
2018-09-01T05:37:36.621Z,17.13
2018-09-01T05:40:05.317Z,17.53
2018-09-01T05:42:33.780Z,17.93
2018-09-01T05:45:02.061Z,17.70
2018-09-01T05:47:30.493Z,17.97
2018-09-01T05:49:58.770Z,17.93
2018-09-01T05:52:27.072Z,19.13
2018-09-01T05:54:55.441Z,18.53
2018-09-01T05:57:23.765Z,18.23
2018-09-01T05:59:52.107Z,19.00
2018-09-01T06:02:20.520Z,19.60
2018-09-01T06:04:48.782Z,20.27
2018-09-01T06:07:17.061Z,20.13
2018-09-01T06:09:45.703Z,20.87
2018-09-01T06:12:13.949Z,22.10
2018-09-01T06:14:42.214Z,19.53
2018-09-01T06:17:10.595Z,20.07
2018-09-01T06:19:38.838Z,19.87
2018-09-01T06:22:07.116Z,19.93
2018-09-01T06:24:35.402Z,19.90
2018-09-01T06:27:07.778Z,20.93
2018-09-01T06:29:36.016Z,20.20
2018-09-01T06:32:06.194Z,20.63
2018-09-01T06:34:34.429Z,20.87
2018-09-01T06:37:02.723Z,20.57
2018-09-01T06:39:30.973Z,19.77
2018-09-01T06:41:59.257Z,20.43
2018-09-01T06:44:27.613Z,21.13
2018-09-01T06:46:55.864Z,20.50
2018-09-01T06:49:24.104Z,20.63
2018-09-01T06:51:52.427Z,20.07
2018-09-01T06:54:20.690Z,21.03
2018-09-01T06:56:48.993Z,19.57
2018-09-01T06:59:17.232Z,19.53
2018-09-01T07:01:45.489Z,19.23
2018-09-01T07:04:13.893Z,20.10
2018-09-01T07:06:42.205Z,20.83
2018-09-01T07:09:10.440Z,20.70
2018-09-01T07:11:38.749Z,20.53
2018-09-01T07:14:07.061Z,20.30
2018-09-01T07:16:35.848Z,20.47
2018-09-01T07:19:04.124Z,20.77
2018-09-01T07:21:32.469Z,21.50
2018-09-01T07:24:00.848Z,19.67
2018-09-01T07:26:29.091Z,20.17
2018-09-01T07:28:57.355Z,20.97
2018-09-01T07:31:25.967Z,20.87
2018-09-01T07:33:53.920Z,20.00
2018-09-01T07:36:22.162Z,18.60
2018-09-01T07:38:50.444Z,19.73
2018-09-01T07:41:18.765Z,18.93
2018-09-01T07:43:47.061Z,18.30
2018-09-01T07:46:15.341Z,17.50
2018-09-01T07:48:43.612Z,16.47
2018-09-01T07:51:11.884Z,16.80
2018-09-01T07:53:40.205Z,15.57
2018-09-01T07:56:08.614Z,15.50
2018-09-01T07:58:36.806Z,14.53
2018-09-01T08:01:05.185Z,13.13
2018-09-01T08:03:33.481Z,12.80
2018-09-01T08:06:01.732Z,12.10
2018-09-01T08:08:30.041Z,11.17
2018-09-01T08:10:58.268Z,10.97
2018-09-01T08:13:26.505Z,9.90
2018-09-01T08:15:54.816Z,9.83
2018-09-01T08:18:23.084Z,7.83
2018-09-01T08:20:51.369Z,7.87
2018-09-01T08:23:19.684Z,8.97
2018-09-01T08:25:47.899Z,7.57
2018-09-01T08:28:16.245Z,8.37
2018-09-01T08:30:44.592Z,19.17
2018-09-01T08:33:12.854Z,7.20
2018-09-01T08:35:41.262Z,5.87
2018-09-01T08:38:09.534Z,5.43
2018-09-01T08:40:37.784Z,5.23
2018-09-01T08:43:06.093Z,5.40
2018-09-01T08:45:34.403Z,4.80
2018-09-01T08:48:02.832Z,4.13
2018-09-01T08:50:31.095Z,4.70
2018-09-01T08:52:59.377Z,4.63
2018-09-01T08:55:27.616Z,4.90
2018-09-01T08:57:55.877Z,4.53
2018-09-01T09:00:24.109Z,4.28
2018-09-01T09:02:52.334Z,4.45
2018-09-01T09:05:20.595Z,4.12
2018-09-01T09:07:48.809Z,3.77
2018-09-01T09:10:17.056Z,3.62
2018-09-01T09:12:45.333Z,3.85
2018-09-01T09:15:13.549Z,3.15
2018-09-01T09:17:41.809Z,3.77
2018-09-01T09:20:10.061Z,3.37
2018-09-01T09:22:38.338Z,3.40
2018-09-01T09:25:06.561Z,3.52
2018-09-01T09:27:34.816Z,3.57
2018-09-01T09:30:03.089Z,3.97
2018-09-01T09:32:31.341Z,4.07
2018-09-01T09:34:59.716Z,3.30
2018-09-01T09:37:27.950Z,3.60
2018-09-01T09:39:56.214Z,3.60
2018-09-01T09:42:24.544Z,3.50
2018-09-01T09:44:52.827Z,3.65
2018-09-01T09:47:21.058Z,3.70
2018-09-01T09:49:49.320Z,3.30
2018-09-01T09:52:17.564Z,4.30
2018-09-01T09:54:45.822Z,3.30
2018-09-01T09:57:14.045Z,4.37
2018-09-01T09:59:42.252Z,4.13
2018-09-01T10:02:10.529Z,4.00
2018-09-01T10:04:38.736Z,3.90
2018-09-01T10:07:06.945Z,3.87
2018-09-01T10:09:35.336Z,5.00
2018-09-01T10:12:03.682Z,5.30
2018-09-01T10:14:32.005Z,3.87
2018-09-01T10:17:00.288Z,3.97
2018-09-01T10:19:28.523Z,3.87
2018-09-01T10:21:56.841Z,4.27
2018-09-01T10:24:25.197Z,3.77
2018-09-01T10:26:53.711Z,4.20
2018-09-01T10:29:21.848Z,3.63
2018-09-01T10:31:50.285Z,3.90
2018-09-01T10:34:18.769Z,4.13
2018-09-01T10:36:48.902Z,3.93
2018-09-01T10:39:20.595Z,3.77
2018-09-01T10:41:48.922Z,2.93
2018-09-01T10:44:18.065Z,2.90
2018-09-01T10:46:48.199Z,2.90
2018-09-01T10:49:17.692Z,3.50
2018-09-01T10:51:46.644Z,2.97
2018-09-01T10:54:15.382Z,2.30
2018-09-01T10:56:44.771Z,2.30
2018-09-01T10:59:13.136Z,2.22
2018-09-01T11:01:41.525Z,2.15
2018-09-01T11:04:09.803Z,1.92
2018-09-01T11:06:38.056Z,2.17
2018-09-01T11:09:08.351Z,2.08
2018-09-01T11:11:36.589Z,2.05
2018-09-01T11:14:04.857Z,1.95
2018-09-01T11:16:33.132Z,1.90
2018-09-01T11:19:01.484Z,2.20
2018-09-01T11:21:29.740Z,2.12
2018-09-01T11:23:58.036Z,2.00
2018-09-01T11:26:26.320Z,2.12
2018-09-01T11:28:54.617Z,2.30
2018-09-01T11:31:22.924Z,2.05
2018-09-01T11:33:51.205Z,2.10
2018-09-01T11:36:19.708Z,2.30
2018-09-01T11:38:47.945Z,2.27
2018-09-01T11:41:16.209Z,2.50
2018-09-01T11:43:44.531Z,2.20
2018-09-01T11:46:12.996Z,2.60
2018-09-01T11:48:41.327Z,2.20
2018-09-01T11:51:09.591Z,2.20
2018-09-01T11:53:37.935Z,2.25
2018-09-01T11:56:06.168Z,2.20
2018-09-01T11:58:34.477Z,1.98
2018-09-01T12:01:02.777Z,2.35
2018-09-01T12:03:31.026Z,1.90
2018-09-01T12:05:59.297Z,2.25
2018-09-01T12:08:27.662Z,2.00
2018-09-01T12:10:56.173Z,2.35
2018-09-01T12:13:24.464Z,2.40
2018-09-01T12:15:52.755Z,2.12
2018-09-01T12:18:20.957Z,2.30
2018-09-01T12:20:49.502Z,2.00
2018-09-01T12:23:17.716Z,1.90
2018-09-01T12:25:46.206Z,1.82
2018-09-01T12:28:14.666Z,2.10
2018-09-01T12:30:42.832Z,2.25
2018-09-01T12:33:11.220Z,2.12
2018-09-01T12:35:39.490Z,2.00
2018-09-01T12:38:07.766Z,2.55
2018-09-01T12:40:35.977Z,2.12
2018-09-01T12:43:04.226Z,1.95
2018-09-01T12:45:32.494Z,1.95
2018-09-01T12:48:00.749Z,1.98
2018-09-01T12:50:29.018Z,1.87
2018-09-01T12:52:57.282Z,2.30
2018-09-01T12:55:25.493Z,2.00
2018-09-01T12:57:53.768Z,2.08
2018-09-01T13:00:22.004Z,2.20
2018-09-01T13:02:50.256Z,2.10
2018-09-01T13:05:18.496Z,1.95
2018-09-01T13:07:46.970Z,2.10
2018-09-01T13:10:15.285Z,2.02
2018-09-01T13:12:43.754Z,1.90
2018-09-01T13:15:12.001Z,1.80
2018-09-01T13:17:40.336Z,1.90
2018-09-01T13:20:08.596Z,1.80
2018-09-01T13:22:36.976Z,1.90
2018-09-01T13:25:05.300Z,2.00
2018-09-01T13:27:33.518Z,2.02
2018-09-01T13:30:01.792Z,2.10
2018-09-01T13:32:30.051Z,2.02
2018-09-01T13:34:58.427Z,2.20
2018-09-01T13:37:26.697Z,1.77
2018-09-01T13:39:54.976Z,1.85
2018-09-01T13:42:23.248Z,2.10
2018-09-01T13:44:51.516Z,1.95
2018-09-01T13:47:19.937Z,1.60
2018-09-01T13:49:48.198Z,1.72
2018-09-01T13:52:16.448Z,2.12
2018-09-01T13:54:44.752Z,2.25
2018-09-01T13:57:13.140Z,3.08
2018-09-01T13:59:41.309Z,1.80
2018-09-01T14:02:09.665Z,2.22
2018-09-01T14:04:38.096Z,1.80
2018-09-01T14:07:06.461Z,2.00
2018-09-01T14:09:34.826Z,2.25
2018-09-01T14:12:03.088Z,2.10
2018-09-01T14:14:31.415Z,1.60
2018-09-01T14:16:59.593Z,1.80
2018-09-01T14:19:27.865Z,1.82
2018-09-01T14:21:56.201Z,2.20
2018-09-01T14:24:24.472Z,1.72
2018-09-01T14:26:52.816Z,2.85
2018-09-01T14:29:21.132Z,2.10
2018-09-01T14:31:49.436Z,2.20
2018-09-01T14:34:17.809Z,1.75
2018-09-01T14:36:45.993Z,2.25
2018-09-01T14:39:14.251Z,2.00
2018-09-01T14:41:42.732Z,1.73
2018-09-01T14:44:11.005Z,2.30
2018-09-01T14:46:39.313Z,2.30
2018-09-01T14:49:07.527Z,2.20
2018-09-01T14:51:35.757Z,2.17
2018-09-01T14:54:03.988Z,1.90
2018-09-01T14:56:32.299Z,2.23
2018-09-01T14:59:00.548Z,2.20
2018-09-01T15:01:28.850Z,2.47
2018-09-01T15:03:57.208Z,2.07
2018-09-01T15:06:25.451Z,2.00
2018-09-01T15:08:53.676Z,2.13
2018-09-01T15:11:21.969Z,1.80
2018-09-01T15:13:50.278Z,2.13
2018-09-01T15:16:24.745Z,2.20
2018-09-01T15:18:55.825Z,2.10
2018-09-01T15:21:24.173Z,2.27
2018-09-01T15:23:52.420Z,2.23
2018-09-01T15:26:20.687Z,2.07
2018-09-01T15:28:48.984Z,2.03
2018-09-01T15:31:18.009Z,2.73
2018-09-01T15:33:46.729Z,2.40
2018-09-01T15:36:15.000Z,2.60
2018-09-01T15:38:43.323Z,2.00
2018-09-01T15:41:11.725Z,1.90
2018-09-01T15:43:39.980Z,2.53
2018-09-01T15:46:08.191Z,2.20
2018-09-01T15:48:36.457Z,2.20
2018-09-01T15:51:04.817Z,2.07
2018-09-01T15:53:33.217Z,2.10
2018-09-01T15:56:01.465Z,2.50
2018-09-01T15:58:29.748Z,1.87
2018-09-01T16:00:57.989Z,2.10
2018-09-01T16:03:26.238Z,1.90
2018-09-01T16:05:54.465Z,2.17
2018-09-01T16:08:22.721Z,2.10
2018-09-01T16:10:50.949Z,1.87
2018-09-01T16:13:19.171Z,2.27
2018-09-01T16:15:47.430Z,1.83
2018-09-01T16:18:15.656Z,2.20
2018-09-01T16:20:43.964Z,1.70
2018-09-01T16:23:12.232Z,1.90
2018-09-01T16:25:40.589Z,2.30
2018-09-01T16:28:08.889Z,1.97
2018-09-01T16:30:37.159Z,1.90
2018-09-01T16:33:05.624Z,1.90
2018-09-01T16:35:33.885Z,1.80
2018-09-01T16:38:02.159Z,2.07
2018-09-01T16:40:30.469Z,2.07
2018-09-01T16:42:58.726Z,2.33
2018-09-01T16:45:26.991Z,2.00
2018-09-01T16:47:55.204Z,2.30
2018-09-01T16:50:23.440Z,2.13
2018-09-01T16:52:51.733Z,2.20
2018-09-01T16:55:20.180Z,2.17
2018-09-01T16:57:48.386Z,2.10
2018-09-01T17:00:16.641Z,1.83
2018-09-01T17:02:44.993Z,1.83
2018-09-01T17:05:13.232Z,1.70
2018-09-01T17:07:41.505Z,2.23
2018-09-01T17:10:09.947Z,2.20
2018-09-01T17:12:38.172Z,2.57
2018-09-01T17:15:07.191Z,2.30
2018-09-01T17:17:35.624Z,3.20
2018-09-01T17:20:03.921Z,2.80
2018-09-01T17:22:32.259Z,2.20
2018-09-01T17:25:00.505Z,2.50
2018-09-01T17:27:28.732Z,2.60
2018-09-01T17:29:57.013Z,2.30
2018-09-01T17:32:25.260Z,2.20
2018-09-01T17:34:53.600Z,2.10
2018-09-01T17:37:21.842Z,2.57
2018-09-01T17:39:50.222Z,2.43
2018-09-01T17:42:18.669Z,3.30
2018-09-01T17:44:46.888Z,2.70
2018-09-01T17:47:15.197Z,3.00
2018-09-01T17:49:43.448Z,3.13
2018-09-01T17:52:12.025Z,2.97
2018-09-01T17:54:40.598Z,3.50
2018-09-01T17:57:09.213Z,3.60
2018-09-01T17:59:37.433Z,4.10
2018-09-01T18:02:05.820Z,4.50
2018-09-01T18:04:51.109Z,5.20
2018-09-01T18:07:19.421Z,5.77
2018-09-01T18:09:47.974Z,5.87
2018-09-01T18:12:16.277Z,4.63
2018-09-01T18:14:44.567Z,4.10
2018-09-01T18:17:12.894Z,3.90
2018-09-01T18:19:41.213Z,3.40
2018-09-01T18:22:09.552Z,3.20
2018-09-01T18:24:37.942Z,3.03
2018-09-01T18:27:06.332Z,3.20
2018-09-01T18:29:34.725Z,3.20
2018-09-01T18:32:03.045Z,2.80
2018-09-01T18:34:31.388Z,2.87
2018-09-01T18:36:59.728Z,2.37
2018-09-01T18:39:28.080Z,2.60
2018-09-01T18:41:56.464Z,3.90
2018-09-01T18:44:24.900Z,5.57
2018-09-01T18:46:53.213Z,6.40
2018-09-01T18:49:21.533Z,8.57
2018-09-01T18:51:49.995Z,5.20
2018-09-01T18:54:18.437Z,4.07
2018-09-01T18:56:46.868Z,3.87
2018-09-01T18:59:15.259Z,3.57
2018-09-01T19:01:43.668Z,3.07
2018-09-01T19:04:12.081Z,2.80
2018-09-01T19:06:40.453Z,3.30
2018-09-01T19:09:08.777Z,3.17
2018-09-01T19:11:37.596Z,3.40
2018-09-01T19:14:06.246Z,3.10
2018-09-01T19:16:34.542Z,3.03
2018-09-01T19:19:02.983Z,3.60
2018-09-01T19:21:31.368Z,3.30
2018-09-01T19:23:59.677Z,3.53
2018-09-01T19:26:27.995Z,3.40
2018-09-01T19:28:56.344Z,3.13
2018-09-01T19:31:24.760Z,4.13
2018-09-01T19:33:53.044Z,3.43
2018-09-01T19:36:22.239Z,3.63
2018-09-01T19:38:50.621Z,3.53
2018-09-01T19:41:18.940Z,3.60
2018-09-01T19:43:47.270Z,3.80
2018-09-01T19:46:15.672Z,3.97
2018-09-01T19:48:43.968Z,3.97
2018-09-01T19:51:12.314Z,3.83
2018-09-01T19:53:40.693Z,4.47
2018-09-01T19:56:09.052Z,4.00
2018-09-01T19:58:37.493Z,4.70
2018-09-01T20:01:05.912Z,4.00
2018-09-01T20:03:34.293Z,4.70
2018-09-01T20:06:02.835Z,4.20
2018-09-01T20:08:31.228Z,4.53
2018-09-01T20:10:59.592Z,4.30
2018-09-01T20:13:27.987Z,4.50
2018-09-01T20:15:56.355Z,4.87
2018-09-01T20:18:24.717Z,4.90
2018-09-01T20:20:53.021Z,4.83
2018-09-01T20:23:21.413Z,4.90
2018-09-01T20:25:49.746Z,6.73
2018-09-01T20:28:18.133Z,5.80
2018-09-01T20:30:46.526Z,5.70
2018-09-01T20:33:14.912Z,6.03
2018-09-01T20:35:48.713Z,5.77
2018-09-01T20:38:17.122Z,5.70
2018-09-01T20:40:45.672Z,5.47
2018-09-01T20:43:14.041Z,5.80
2018-09-01T20:45:42.412Z,6.80
2018-09-01T20:48:10.773Z,7.63
2018-09-01T20:50:39.131Z,5.67
2018-09-01T20:53:07.732Z,5.40
2018-09-01T20:55:36.156Z,5.77
2018-09-01T20:58:04.540Z,5.80
2018-09-01T21:00:32.862Z,5.50
2018-09-01T21:03:01.232Z,5.97
2018-09-01T21:05:29.575Z,5.60
2018-09-01T21:07:58.028Z,5.57
2018-09-01T21:10:26.426Z,4.70
2018-09-01T21:12:54.700Z,5.90
2018-09-01T21:15:23.056Z,6.43
2018-09-01T21:17:51.363Z,6.80
2018-09-01T21:20:19.701Z,6.93
2018-09-01T21:22:48.052Z,7.00
2018-09-01T21:25:16.332Z,7.40
2018-09-01T21:27:44.765Z,7.30
2018-09-01T21:30:13.056Z,7.30
2018-09-01T21:32:41.348Z,6.57
2018-09-01T21:35:09.680Z,7.17
2018-09-01T21:37:37.991Z,7.37
2018-09-01T21:40:06.414Z,7.40
2018-09-01T21:42:34.739Z,7.23
2018-09-01T21:45:03.317Z,6.60
2018-09-01T21:47:31.673Z,6.47
2018-09-01T21:50:00.068Z,6.83
2018-09-01T21:52:28.401Z,6.27
2018-09-01T21:54:56.845Z,6.77
2018-09-01T21:57:25.188Z,7.00
2018-09-01T21:59:53.747Z,6.33
2018-09-01T22:02:23.600Z,6.27
2018-09-01T22:04:57.484Z,7.10
2018-09-01T22:07:25.836Z,6.90
2018-09-01T22:09:54.910Z,6.47
2018-09-01T22:12:23.445Z,6.87
2018-09-01T22:14:53.021Z,7.43
2018-09-01T22:17:21.772Z,7.67
2018-09-01T22:19:50.496Z,7.00
2018-09-01T22:22:18.853Z,7.53
2018-09-01T22:24:47.181Z,7.80
2018-09-01T22:27:15.557Z,7.50
2018-09-01T22:29:43.890Z,7.20
2018-09-01T22:32:12.217Z,7.50
2018-09-01T22:34:40.686Z,7.70
2018-09-01T22:37:09.165Z,8.10
2018-09-01T22:39:37.544Z,8.37
2018-09-01T22:42:06.062Z,8.90
2018-09-01T22:44:34.445Z,8.20
2018-09-01T22:47:05.460Z,8.63
2018-09-01T22:49:33.833Z,9.50
2018-09-01T22:52:02.220Z,8.70
2018-09-01T22:54:30.548Z,9.23
2018-09-01T22:56:58.973Z,9.90
2018-09-01T22:59:27.352Z,9.07
2018-09-01T23:01:55.730Z,9.53
2018-09-01T23:04:24.119Z,8.90
2018-09-01T23:06:52.468Z,8.80
2018-09-01T23:09:20.887Z,7.97
2018-09-01T23:11:50.068Z,8.03
2018-09-01T23:14:18.463Z,8.93
2018-09-01T23:16:46.839Z,8.07
2018-09-01T23:19:15.153Z,7.83
2018-09-01T23:21:43.495Z,8.10
2018-09-01T23:24:11.801Z,8.40
2018-09-01T23:26:40.416Z,7.83
2018-09-01T23:29:08.867Z,8.00
2018-09-01T23:31:37.299Z,8.97
2018-09-01T23:34:05.680Z,8.70
2018-09-01T23:36:34.056Z,8.30
2018-09-01T23:39:02.437Z,7.87
2018-09-01T23:41:30.840Z,8.27
2018-09-01T23:43:59.140Z,8.23
2018-09-01T23:46:27.416Z,8.87
2018-09-01T23:48:55.765Z,9.50
2018-09-01T23:51:24.124Z,8.60
2018-09-01T23:53:52.629Z,9.30
2018-09-01T23:56:21.000Z,9.67
2018-09-01T23:58:49.363Z,9.17
